Time,TemperatureF,DewpointF,PressureIn,WindDirection,WindDirectionDegrees,WindSpeedMPH,WindSpeedGustMPH,Humidity,HourlyPrecipIn,Conditions,Clouds,dailyrainin,SolarRadiationWatts/m^2,SoftwareType,DateUTC
2013-11-14 03:27:00,34.5,19.6,29.96,SSW,195,7.0,10.0,54,0.00,CLR,,0.00,0.0,WeatherDisplay:10.37,2013-11-14 09:27:00,
2013-11-14 03:32:00,34.6,19.6,29.96,South,187,6.0,12.0,54,0.00,CLR,,0.00,0.0,WeatherDisplay:10.37,2013-11-14 09:32:00,
2013-11-14 03:37:00,34.6,19.6,29.96,SSW,193,7.0,10.8,54,0.00,CLR,,0.00,0.0,WeatherDisplay:10.37,2013-11-14 09:37:00,
2013-11-14 03:42:00,34.4,19.5,29.96,SSW,209,9.2,12.0,54,0.00,CLR,,0.00,0.0,WeatherDisplay:10.37,2013-11-14 09:42:00,
2013-11-14 03:47:00,34.4,19.9,29.96,SSW,192,3.5,8.1,55,0.00,CLR,,0.00,0.0,WeatherDisplay:10.37,2013-11-14 09:47:00,
2013-11-14 03:52:00,34.3,20.2,29.96,South,184,6.1,9.2,56,0.00,CLR,,0.00,0.0,WeatherDisplay:10.37,2013-11-14 09:52:00,
2013-11-14 03:57:00,34.3,19.8,29.96,SSW,198,7.6,12.0,55,0.00,CLR,,0.00,0.0,WeatherDisplay:10.37,2013-11-14 09:57:00,
2013-11-14 04:02:00,34.3,19.8,29.95,South,177,7.5,13.2,55,0.00,CLR,,0.00,0.0,WeatherDisplay:10.37,2013-11-14 10:02:00,
2013-11-14 04:07:00,34.3,19.8,29.95,SSW,198,7.3,12.0,55,0.00,CLR,,0.00,0.0,WeatherDisplay:10.37,2013-11-14 10:07:00,
2013-11-14 04:12:00,34.4,19.9,29.95,South,191,8.7,10.8,55,0.00,CLR,,0.00,0.0,WeatherDisplay:10.37,2013-11-14 10:12:00,
2013-11-14 04:17:00,34.6,19.6,29.96,SSW,196,8.4,12.0,54,0.00,CLR,,0.00,0.0,WeatherDisplay:10.37,2013-11-14 10:17:00,
2013-11-14 04:22:00,34.4,19.9,29.96,SSW,194,10.3,13.2,55,0.00,CLR,,0.00,0.0,WeatherDisplay:10.37,2013-11-14 10:22:00,
2013-11-14 04:27:00,34.6,20.1,29.96,South,188,0.2,6.9,55,0.00,CLR,,0.00,0.0,WeatherDisplay:10.37,2013-11-14 10:27:00,
2013-11-14 04:32:00,34.4,19.9,29.96,SSW,209,3.7,6.0,55,0.00,CLR,,0.00,0.0,WeatherDisplay:10.37,2013-11-14 10:32:00,
2013-11-14 04:37:00,34.4,19.9,29.96,SSW,193,1.0,3.6,55,0.00,CLR,,0.00,0.0,WeatherDisplay:10.37,2013-11-14 10:37:00,
2013-11-14 04:42:00,34.4,19.9,29.96,South,187,0.0,0.0,55,0.00,CLR,,0.00,0.0,WeatherDisplay:10.37,2013-11-14 10:42:00,
2013-11-14 04:47:00,34.3,19.8,29.97,SE,143,6.6,8.4,55,0.00,CLR,,0.00,0.0,WeatherDisplay:10.37,2013-11-14 10:47:00,
2013-11-14 04:52:00,34.4,19.9,29.97,SSW,192,0.9,3.6,55,0.00,CLR,,0.00,0.0,WeatherDisplay:10.37,2013-11-14 10:52:00,
2013-11-14 04:57:00,34.3,20.2,29.97,South,179,4.4,7.2,56,0.00,CLR,,0.00,0.0,WeatherDisplay:10.37,2013-11-14 10:57:00,
2013-11-14 05:02:00,34.3,20.2,29.96,SSW,203,6.8,8.4,56,0.00,CLR,,0.00,0.0,WeatherDisplay:10.37,2013-11-14 11:02:00,
2013-11-14 05:07:00,34.1,20.0,29.96,South,183,3.1,7.2,56,0.00,CLR,,0.00,0.0,WeatherDisplay:10.37,2013-11-14 11:07:00,
2013-11-14 05:12:00,33.8,20.6,29.96,South,180,0.0,1.2,58,0.00,CLR,,0.00,0.0,WeatherDisplay:10.37,2013-11-14 11:12:00,
2013-11-14 05:17:00,33.7,20.5,29.96,South,175,5.9,8.4,58,0.00,CLR,,0.00,0.0,WeatherDisplay:10.37,2013-11-14 11:17:00,
2013-11-14 05:22:00,33.7,20.5,29.96,SSW,196,8.1,10.8,58,0.00,CLR,,0.00,0.0,WeatherDisplay:10.37,2013-11-14 11:22:00,
2013-11-14 05:27:00,33.7,20.5,29.96,SSW,200,8.4,10.8,58,0.00,CLR,,0.00,0.0,WeatherDisplay:10.37,2013-11-14 11:27:00,
2013-11-14 05:32:00,33.7,20.5,29.96,SSW,202,8.5,11.5,58,0.00,CLR,,0.00,0.0,WeatherDisplay:10.37,2013-11-14 11:32:00,
2013-11-14 05:37:00,33.7,20.5,29.96,SSW,200,7.4,11.5,58,0.00,CLR,,0.00,0.0,WeatherDisplay:10.37,2013-11-14 11:37:00,
2013-11-14 05:42:00,33.7,20.5,29.96,SSW,200,12.4,15.0,58,0.00,CLR,,0.00,0.0,WeatherDisplay:10.37,2013-11-14 11:42:00,
2013-11-14 05:47:00,33.7,20.5,29.94,SSW,193,9.5,11.5,58,0.00,CLR,,0.00,0.0,WeatherDisplay:10.37,2013-11-14 11:47:00,
2013-11-14 05:52:00,33.7,20.9,29.94,SSW,200,7.6,12.0,59,0.00,CLR,,0.00,0.0,WeatherDisplay:10.37,2013-11-14 11:52:00,
2013-11-14 05:57:00,33.7,20.5,29.94,SSE,165,12.5,13.2,58,0.00,CLR,,0.00,0.0,WeatherDisplay:10.37,2013-11-14 11:57:00,
2013-11-14 06:02:00,33.5,20.7,29.93,South,183,7.7,10.8,59,0.00,CLR,,0.00,0.0,WeatherDisplay:10.37,2013-11-14 12:02:00,
2013-11-14 06:07:00,33.5,20.7,29.93,SSW,202,6.4,8.4,59,0.00,CLR,,0.00,0.0,WeatherDisplay:10.37,2013-11-14 12:07:00,
2013-11-14 06:12:00,33.5,20.7,29.93,SSW,202,6.0,7.2,59,0.00,CLR,,0.00,0.0,WeatherDisplay:10.37,2013-11-14 12:12:00,
2013-11-14 06:29:00,33.7,20.9,29.95,SSW,204,7.1,8.4,59,0.00,CLR,,0.00,0.0,WeatherDisplay:10.37,2013-11-14 12:29:00,
2013-11-14 06:34:00,33.7,20.9,29.95,SSW,209,8.7,9.6,59,0.00,CLR,,0.00,0.0,WeatherDisplay:10.37,2013-11-14 12:34:00,
2013-11-14 06:39:00,33.7,20.9,29.95,SSW,194,7.3,9.6,59,0.00,CLR,,0.00,0.0,WeatherDisplay:10.37,2013-11-14 12:39:00,
2013-11-14 06:44:00,33.7,20.9,29.95,SSW,211,9.2,15.6,59,0.00,CLR,,0.00,5.0,WeatherDisplay:10.37,2013-11-14 12:44:00,
2013-11-14 06:49:00,33.7,20.9,29.94,SSW,198,7.6,11.5,59,0.00,CLR,,0.00,7.0,WeatherDisplay:10.37,2013-11-14 12:49:00,
2013-11-14 06:54:00,33.7,20.9,29.94,SSW,196,6.2,8.4,59,0.00,CLR,,0.00,7.0,WeatherDisplay:10.37,2013-11-14 12:54:00,
2013-11-14 06:59:00,33.7,20.9,29.94,SW,223,8.7,12.0,59,0.00,CLR,,0.00,9.0,WeatherDisplay:10.37,2013-11-14 12:59:00,
2013-11-14 07:04:00,33.5,21.1,29.94,SSW,192,5.7,7.2,60,0.00,CLR,,0.00,12.0,WeatherDisplay:10.37,2013-11-14 13:04:00,
2013-11-14 07:09:00,33.7,21.3,29.94,SSW,195,3.4,6.0,60,0.00,CLR,,0.00,16.0,WeatherDisplay:10.37,2013-11-14 13:09:00,
2013-11-14 07:14:00,33.7,21.3,29.94,SSW,193,6.9,12.0,60,0.00,CLR,,0.00,18.0,WeatherDisplay:10.37,2013-11-14 13:14:00,
2013-11-14 07:19:00,33.7,21.3,29.95,South,185,9.2,10.8,60,0.00,CLR,,0.00,19.0,WeatherDisplay:10.37,2013-11-14 13:19:00,
2013-11-14 07:24:00,33.7,21.3,29.95,SSW,192,5.5,15.6,60,0.00,CLR,,0.00,25.0,WeatherDisplay:10.37,2013-11-14 13:24:00,
2013-11-14 07:29:00,33.7,21.3,29.94,SSW,211,2.9,7.2,60,0.00,CLR,,0.00,35.0,WeatherDisplay:10.37,2013-11-14 13:29:00,
2013-11-14 07:34:00,33.8,21.4,29.94,South,191,4.0,9.2,60,0.00,CLR,,0.00,40.0,WeatherDisplay:10.37,2013-11-14 13:34:00,
2013-11-14 07:40:00,33.7,21.7,29.94,South,188,5.0,8.4,61,0.00,CLR,,0.00,49.0,WeatherDisplay:10.37,2013-11-14 13:40:00,
2013-11-14 07:45:00,33.7,21.7,29.94,South,179,1.4,4.8,61,0.00,CLR,,0.00,56.0,WeatherDisplay:10.37,2013-11-14 13:45:00,
2013-11-14 07:50:00,33.5,21.9,29.94,SSW,203,1.4,9.6,62,0.00,CLR,,0.00,69.0,WeatherDisplay:10.37,2013-11-14 13:50:00,
2013-11-14 07:55:00,33.7,22.1,29.94,SSW,209,6.7,9.6,62,0.00,CLR,,0.00,83.0,WeatherDisplay:10.37,2013-11-14 13:55:00,
2013-11-14 08:00:00,33.7,22.1,29.94,South,172,4.8,8.4,62,0.00,CLR,,0.00,84.0,WeatherDisplay:10.37,2013-11-14 14:00:00,
2013-11-14 08:05:00,34.0,22.0,29.94,South,178,6.1,14.4,61,0.00,CLR,,0.00,91.0,WeatherDisplay:10.37,2013-11-14 14:05:00,
2013-11-14 08:10:00,34.1,22.4,29.94,SSW,198,7.8,10.8,62,0.00,CLR,,0.00,91.0,WeatherDisplay:10.37,2013-11-14 14:10:00,
2013-11-14 08:15:00,34.4,22.3,29.94,SSW,200,9.7,10.8,61,0.00,CLR,,0.00,97.0,WeatherDisplay:10.37,2013-11-14 14:15:00,
2013-11-14 08:20:00,34.7,22.2,29.93,SSW,200,8.6,9.6,60,0.00,CLR,,0.00,95.0,WeatherDisplay:10.37,2013-11-14 14:20:00,
2013-11-14 08:25:00,34.9,22.4,29.93,South,188,0.0,1.2,60,0.00,CLR,,0.00,132.0,WeatherDisplay:10.37,2013-11-14 14:25:00,
2013-11-14 08:30:00,35.2,22.3,29.94,SSW,201,8.6,10.8,59,0.00,CLR,,0.00,148.0,WeatherDisplay:10.37,2013-11-14 14:30:00,
2013-11-14 08:35:00,35.6,22.7,29.94,SSW,204,9.4,16.8,59,0.00,CLR,,0.00,114.0,WeatherDisplay:10.37,2013-11-14 14:35:00,
2013-11-14 08:40:00,35.9,23.0,29.94,SSE,166,8.8,12.0,59,0.00,CLR,,0.00,144.0,WeatherDisplay:10.37,2013-11-14 14:40:00,
2013-11-14 08:45:00,36.0,22.2,29.94,SSW,204,9.4,13.2,57,0.00,CLR,,0.00,120.0,WeatherDisplay:10.37,2013-11-14 14:45:00,
2013-11-14 08:47:00,36.2,22.8,29.94,SSW,194,8.0,21.0,58,0.00,CLR,,0.00,116.0,WeatherDisplay:10.37,2013-11-14 14:47:00,
2013-11-14 08:52:00,36.5,23.1,29.94,SSW,205,4.9,8.4,58,0.00,CLR,,0.00,142.0,WeatherDisplay:10.37,2013-11-14 14:52:00,
2013-11-14 08:57:00,36.8,23.0,29.94,SW,221,10.0,13.2,57,0.00,CLR,,0.00,139.0,WeatherDisplay:10.37,2013-11-14 14:57:00,
2013-11-14 09:02:00,36.9,23.1,29.94,SSW,192,9.5,11.5,57,0.00,CLR,,0.00,165.0,WeatherDisplay:10.37,2013-11-14 15:02:00,
2013-11-14 09:07:00,37.2,23.4,29.94,South,185,8.8,9.6,57,0.00,CLR,,0.00,216.0,WeatherDisplay:10.37,2013-11-14 15:07:00,
2013-11-14 09:12:00,37.5,23.2,29.94,SW,234,9.9,12.0,56,0.00,CLR,,0.00,283.0,WeatherDisplay:10.37,2013-11-14 15:12:00,
2013-11-14 09:17:00,38.0,23.7,29.94,SSW,210,6.0,16.0,56,0.00,CLR,,0.00,209.0,WeatherDisplay:10.37,2013-11-14 15:17:00,
2013-11-14 09:22:00,38.3,23.5,29.94,SW,232,7.6,11.5,55,0.00,CLR,,0.00,279.0,WeatherDisplay:10.37,2013-11-14 15:22:00,
2013-11-14 09:27:00,38.5,23.7,29.94,SSW,211,12.6,20.4,55,0.00,CLR,,0.00,278.0,WeatherDisplay:10.37,2013-11-14 15:27:00,
2013-11-14 09:32:00,38.5,23.7,29.94,WSW,240,9.5,12.0,55,0.00,CLR,,0.00,376.0,WeatherDisplay:10.37,2013-11-14 15:32:00,
2013-11-14 09:37:00,38.9,23.7,29.94,South,171,8.9,15.0,54,0.00,CLR,,0.00,309.0,WeatherDisplay:10.37,2013-11-14 15:37:00,
2013-11-14 09:42:00,38.9,23.7,29.94,West,273,9.0,12.0,54,0.00,CLR,,0.00,230.0,WeatherDisplay:10.37,2013-11-14 15:42:00,
2013-11-14 09:47:00,39.1,23.8,29.94,SW,229,9.0,16.0,54,0.00,CLR,,0.00,181.0,WeatherDisplay:10.37,2013-11-14 15:47:00,
2013-11-14 09:52:00,38.9,23.7,29.94,SW,214,7.4,9.6,54,0.00,CLR,,0.00,225.0,WeatherDisplay:10.37,2013-11-14 15:52:00,
2013-11-14 10:21:00,39.3,24.5,29.93,South,188,7.4,19.6,55,0.00,CLR,,0.00,359.0,WeatherDisplay:10.37,2013-11-14 16:21:00,
2013-11-14 10:26:00,40.1,24.8,29.93,SSW,200,6.8,9.6,54,0.00,CLR,,0.00,394.0,WeatherDisplay:10.37,2013-11-14 16:26:00,
2013-11-14 10:31:00,40.5,25.1,29.94,SSW,199,8.6,9.6,54,0.00,CLR,,0.00,422.0,WeatherDisplay:10.37,2013-11-14 16:31:00,
2013-11-14 10:36:00,40.8,25.0,29.94,SW,219,8.5,10.8,53,0.00,CLR,,0.00,434.0,WeatherDisplay:10.37,2013-11-14 16:36:00,
2013-11-14 10:41:00,40.9,24.6,29.94,South,178,7.3,8.4,52,0.00,CLR,,0.00,461.0,WeatherDisplay:10.37,2013-11-14 16:41:00,
2013-11-14 10:46:00,41.2,24.9,29.93,WSW,239,4.4,6.9,52,0.00,CLR,,0.00,483.0,WeatherDisplay:10.37,2013-11-14 16:46:00,
2013-11-14 10:51:00,42.2,25.3,29.93,South,190,7.1,9.6,51,0.00,CLR,,0.00,475.0,WeatherDisplay:10.37,2013-11-14 16:51:00,
2013-11-14 10:56:00,42.2,25.3,29.93,SSW,200,8.7,12.7,51,0.00,CLR,,0.00,411.0,WeatherDisplay:10.37,2013-11-14 16:56:00,
2013-11-14 11:01:00,42.2,25.8,29.92,SSW,193,10.4,15.6,52,0.00,CLR,,0.00,471.0,WeatherDisplay:10.37,2013-11-14 17:01:00,
2013-11-14 11:06:00,42.3,25.9,29.92,SSW,194,12.6,15.0,52,0.00,CLR,,0.00,485.0,WeatherDisplay:10.37,2013-11-14 17:06:00,
2013-11-14 11:11:00,42.6,25.7,29.92,SSW,202,7.7,10.4,51,0.00,CLR,,0.00,517.0,WeatherDisplay:10.37,2013-11-14 17:11:00,
2013-11-14 11:16:00,43.1,26.2,29.91,SSW,207,15.3,19.2,51,0.00,CLR,,0.00,478.0,WeatherDisplay:10.37,2013-11-14 17:16:00,
2013-11-14 11:21:00,42.9,26.0,29.91,SW,219,10.7,12.0,51,0.00,CLR,,0.00,499.0,WeatherDisplay:10.37,2013-11-14 17:21:00,
2013-11-14 11:26:00,43.3,26.4,29.91,SW,233,10.4,17.3,51,0.00,CLR,,0.00,508.0,WeatherDisplay:10.37,2013-11-14 17:26:00,
2013-11-14 11:31:00,43.8,26.3,29.90,SW,236,5.3,10.4,50,0.00,CLR,,0.00,517.0,WeatherDisplay:10.37,2013-11-14 17:31:00,
2013-11-14 11:36:00,44.3,26.8,29.90,South,183,10.0,12.0,50,0.00,CLR,,0.00,503.0,WeatherDisplay:10.37,2013-11-14 17:36:00,
2013-11-14 11:41:00,44.6,27.6,29.90,SSW,207,10.0,12.0,51,0.00,CLR,,0.00,506.0,WeatherDisplay:10.37,2013-11-14 17:41:00,
2013-11-14 11:46:00,44.3,26.3,29.90,SSW,206,13.4,16.1,49,0.00,CLR,,0.00,497.0,WeatherDisplay:10.37,2013-11-14 17:46:00,
2013-11-14 11:51:00,44.3,26.8,29.90,SSW,192,13.4,16.1,50,0.00,CLR,,0.00,455.0,WeatherDisplay:10.37,2013-11-14 17:51:00,
2013-11-14 11:56:00,44.5,27.5,29.90,South,179,8.3,18.4,51,0.00,CLR,,0.00,503.0,WeatherDisplay:10.37,2013-11-14 17:56:00,
2013-11-14 12:01:00,44.9,26.9,29.89,South,178,10.6,14.4,49,0.00,CLR,,0.00,489.0,WeatherDisplay:10.37,2013-11-14 18:01:00,
2013-11-14 12:06:00,45.1,27.6,29.89,SSE,155,6.0,11.5,50,0.00,SCT,,0.00,473.0,WeatherDisplay:10.37,2013-11-14 18:06:00,
2013-11-14 13:15:00,47.7,28.9,29.89,South,190,5.7,12.0,48,0.00,SCT,,0.00,359.0,WeatherDisplay:10.37,2013-11-14 19:15:00,
2013-11-14 13:20:00,47.7,30.0,29.89,SSW,209,2.1,10.8,50,0.00,SCT,,0.00,380.0,WeatherDisplay:10.37,2013-11-14 19:20:00,
2013-11-14 13:25:00,47.7,28.9,29.89,South,189,9.1,12.7,48,0.00,OVC,,0.00,264.0,WeatherDisplay:10.37,2013-11-14 19:25:00,
2013-11-14 13:30:00,47.4,29.2,29.89,WSW,249,10.4,12.0,49,0.00,OVC,,0.00,294.0,WeatherDisplay:10.37,2013-11-14 19:30:00,
2013-11-14 13:35:00,47.7,29.5,29.89,SW,223,5.3,7.2,49,0.00,OVC,,0.00,297.0,WeatherDisplay:10.37,2013-11-14 19:35:00,
2013-11-14 13:40:00,47.7,29.5,29.89,SSW,196,8.2,9.6,49,0.00,OVC,,0.00,253.0,WeatherDisplay:10.37,2013-11-14 19:40:00,
2013-11-14 13:45:00,47.4,29.2,29.89,SSW,200,9.0,10.4,49,0.00,OVC,,0.00,267.0,WeatherDisplay:10.37,2013-11-14 19:45:00,
2013-11-14 13:50:00,47.4,29.2,29.89,SSW,196,6.7,10.4,49,0.00,OVC,,0.00,223.0,WeatherDisplay:10.37,2013-11-14 19:50:00,
2013-11-14 14:02:00,47.1,29.4,29.89,South,176,11.7,20.7,50,0.00,OVC,,0.00,149.0,WeatherDisplay:10.37,2013-11-14 20:02:00,
2013-11-14 14:09:00,47.0,29.3,29.89,SSW,198,7.9,15.0,50,0.00,OVC,,0.00,144.0,WeatherDisplay:10.37,2013-11-14 20:09:00,
2013-11-14 14:14:00,47.0,29.3,29.89,SW,220,4.5,6.9,50,0.00,OVC,,0.00,146.0,WeatherDisplay:10.37,2013-11-14 20:14:00,
2013-11-14 14:19:00,47.1,29.4,29.89,West,264,8.9,9.2,50,0.00,OVC,,0.00,153.0,WeatherDisplay:10.37,2013-11-14 20:19:00,
2013-11-14 14:24:00,47.3,29.6,29.89,SSW,203,4.2,6.9,50,0.00,OVC,,0.00,149.0,WeatherDisplay:10.37,2013-11-14 20:24:00,
2013-11-14 14:29:00,47.4,29.7,29.90,WSW,241,2.6,4.8,50,0.00,OVC,,0.00,155.0,WeatherDisplay:10.37,2013-11-14 20:29:00,
2013-11-14 14:34:00,47.6,29.9,29.90,SW,234,0.0,3.5,50,0.00,OVC,,0.00,121.0,WeatherDisplay:10.37,2013-11-14 20:34:00,
2013-11-14 14:39:00,47.4,29.7,29.90,West,267,4.5,5.8,50,0.00,OVC,,0.00,113.0,WeatherDisplay:10.37,2013-11-14 20:39:00,
2013-11-14 14:44:00,47.4,29.7,29.89,WSW,242,1.8,4.8,50,0.00,BKN,,0.00,123.0,WeatherDisplay:10.37,2013-11-14 20:44:00,
2013-11-14 14:49:00,47.4,30.2,29.89,SW,227,1.9,4.6,51,0.00,BKN,,0.00,137.0,WeatherDisplay:10.37,2013-11-14 20:49:00,
2013-11-14 14:54:00,47.4,30.2,29.89,SW,219,5.5,6.0,51,0.00,BKN,,0.00,125.0,WeatherDisplay:10.37,2013-11-14 20:54:00,
2013-11-14 14:59:00,47.4,29.7,29.89,SSW,195,7.1,9.2,50,0.00,BKN,,0.00,116.0,WeatherDisplay:10.37,2013-11-14 20:59:00,
2013-11-14 15:04:00,47.3,29.6,29.89,SW,223,8.5,15.0,50,0.00,BKN,,0.00,98.0,WeatherDisplay:10.37,2013-11-14 21:04:00,
2013-11-14 15:09:00,47.3,30.1,29.89,South,191,8.4,10.8,51,0.00,BKN,,0.00,90.0,WeatherDisplay:10.37,2013-11-14 21:09:00,
2013-11-14 15:14:00,47.1,29.9,29.88,South,185,5.6,8.4,51,0.00,BKN,,0.00,70.0,WeatherDisplay:10.37,2013-11-14 21:14:00,
2013-11-14 15:19:00,47.1,29.9,29.88,SW,223,1.2,3.5,51,0.00,BKN,,0.00,65.0,WeatherDisplay:10.37,2013-11-14 21:19:00,
2013-11-14 15:24:00,47.1,30.4,29.88,SSW,199,0.0,4.6,52,0.00,OVC,,0.00,58.0,WeatherDisplay:10.37,2013-11-14 21:24:00,
2013-11-14 15:29:00,47.1,30.4,29.88,SSW,199,0.1,2.4,52,0.00,OVC,,0.00,56.0,WeatherDisplay:10.37,2013-11-14 21:29:00,
2013-11-14 15:34:00,47.0,30.3,29.88,SSW,198,3.2,6.9,52,0.00,OVC,,0.00,56.0,WeatherDisplay:10.37,2013-11-14 21:34:00,
2013-11-14 15:39:00,47.0,30.7,29.88,SSW,192,1.6,3.6,53,0.00,OVC,,0.00,51.0,WeatherDisplay:10.37,2013-11-14 21:39:00,
2013-11-14 15:44:00,46.8,30.1,29.89,South,180,6.5,9.2,52,0.00,BKN,,0.00,51.0,WeatherDisplay:10.37,2013-11-14 21:44:00,
2013-11-14 15:49:00,46.7,30.5,29.89,South,186,3.8,9.2,53,0.00,BKN,,0.00,42.0,WeatherDisplay:10.37,2013-11-14 21:49:00,
2013-11-14 15:54:00,46.7,30.5,29.89,South,187,1.0,4.8,53,0.00,BKN,,0.00,33.0,WeatherDisplay:10.37,2013-11-14 21:54:00,
2013-11-14 15:59:00,46.5,30.3,29.88,South,182,0.9,6.9,53,0.00,BKN,,0.00,26.0,WeatherDisplay:10.37,2013-11-14 21:59:00,
2013-11-14 16:04:00,46.5,30.3,29.88,South,185,5.3,7.2,53,0.00,BKN,,0.00,19.0,WeatherDisplay:10.37,2013-11-14 22:04:00,
2013-11-14 16:09:00,46.4,30.2,29.88,South,172,4.0,8.1,53,0.00,BKN,,0.00,14.0,WeatherDisplay:10.37,2013-11-14 22:09:00,
2013-11-14 16:14:00,46.2,30.5,29.88,South,188,3.0,5.8,54,0.00,BKN,,0.00,9.0,WeatherDisplay:10.37,2013-11-14 22:14:00,
2013-11-14 16:19:00,46.1,30.4,29.88,South,178,4.5,8.4,54,0.00,BKN,,0.00,0.0,WeatherDisplay:10.37,2013-11-14 22:19:00,
2013-11-14 16:24:00,46.0,30.7,29.88,South,178,4.4,7.2,55,0.00,-RA,,0.00,0.0,WeatherDisplay:10.37,2013-11-14 22:24:00,
2013-11-14 16:29:00,46.0,30.3,29.87,South,186,8.3,9.2,54,0.00,-RA,,0.00,0.0,WeatherDisplay:10.37,2013-11-14 22:29:00,
2013-11-14 16:34:00,45.7,30.0,29.87,SSW,209,5.9,8.4,54,0.00,-RA,,0.00,0.0,WeatherDisplay:10.37,2013-11-14 22:34:00,
2013-11-14 16:39:00,45.2,29.5,29.87,South,184,8.1,17.3,54,0.00,-RA,,0.00,0.0,WeatherDisplay:10.37,2013-11-14 22:39:00,
2013-11-14 16:44:00,44.9,29.2,29.87,South,178,11.2,15.0,54,0.00,-DZ,,0.00,0.0,WeatherDisplay:10.37,2013-11-14 22:44:00,
2013-11-14 16:54:00,44.6,29.4,29.87,SSW,192,10.8,17.3,55,0.00,-DZ,,0.00,0.0,WeatherDisplay:10.37,2013-11-14 22:54:00,
2013-11-14 16:59:00,44.6,29.4,29.88,SSW,196,4.9,8.1,55,0.00,-DZ,,0.00,0.0,WeatherDisplay:10.37,2013-11-14 22:59:00,
2013-11-14 17:04:00,44.5,29.3,29.88,South,186,0.9,9.2,55,0.00,OVC,,0.00,0.0,WeatherDisplay:10.37,2013-11-14 23:04:00,
2013-11-14 17:09:00,44.5,29.8,29.88,SSW,194,7.1,8.4,56,0.00,OVC,,0.00,0.0,WeatherDisplay:10.37,2013-11-14 23:09:00,
2013-11-14 17:14:00,44.3,29.6,29.89,South,180,7.2,8.1,56,0.00,OVC,,0.00,0.0,WeatherDisplay:10.37,2013-11-14 23:14:00,
2013-11-14 17:19:00,44.2,29.5,29.89,South,190,12.9,14.4,56,0.00,OVC,,0.00,0.0,WeatherDisplay:10.37,2013-11-14 23:19:00,
2013-11-14 17:24:00,44.2,29.5,29.89,South,174,10.2,17.3,56,0.00,OVC,,0.00,0.0,WeatherDisplay:10.37,2013-11-14 23:24:00,
2013-11-14 17:29:00,44.2,29.5,29.89,South,173,7.5,10.4,56,0.00,OVC,,0.00,0.0,WeatherDisplay:10.37,2013-11-14 23:29:00,
2013-11-14 17:34:00,44.1,29.4,29.89,South,176,7.4,12.7,56,0.00,OVC,,0.00,0.0,WeatherDisplay:10.37,2013-11-14 23:34:00,
2013-11-14 17:39:00,43.9,29.6,29.89,SSW,192,6.9,8.1,57,0.00,OVC,,0.00,0.0,WeatherDisplay:10.37,2013-11-14 23:39:00,
2013-11-14 17:44:00,43.9,29.6,29.88,South,169,7.8,9.2,57,0.00,OVC,,0.00,0.0,WeatherDisplay:10.37,2013-11-14 23:44:00,
2013-11-14 17:49:00,43.9,29.6,29.88,South,179,5.9,10.4,57,0.00,OVC,,0.00,0.0,WeatherDisplay:10.37,2013-11-14 23:49:00,
2013-11-14 17:54:00,43.9,29.2,29.88,South,175,4.1,9.2,56,0.00,OVC,,0.00,0.0,WeatherDisplay:10.37,2013-11-14 23:54:00,
2013-11-14 17:59:00,43.9,29.2,29.89,SSW,197,3.5,8.1,56,0.00,OVC,,0.00,0.0,WeatherDisplay:10.37,2013-11-14 23:59:00,
2013-11-14 18:04:00,43.9,29.6,29.89,South,188,0.6,7.2,57,0.00,OVC,,0.00,0.0,WeatherDisplay:10.37,2013-11-15 00:04:00,
2013-11-14 18:09:00,43.9,29.2,29.89,South,176,3.8,4.8,56,0.00,OVC,,0.00,0.0,WeatherDisplay:10.37,2013-11-15 00:09:00,
2013-11-14 18:14:00,44.1,29.4,29.88,SSW,200,1.4,6.9,56,0.00,OVC,,0.00,0.0,WeatherDisplay:10.37,2013-11-15 00:14:00,
2013-11-14 18:19:00,44.1,29.4,29.88,SSW,198,13.0,13.2,56,0.00,OVC,,0.00,0.0,WeatherDisplay:10.37,2013-11-15 00:19:00,
2013-11-14 18:24:00,44.2,29.5,29.88,SSW,205,12.9,20.7,56,0.00,OVC,,0.00,0.0,WeatherDisplay:10.37,2013-11-15 00:24:00,
2013-11-14 18:29:00,44.2,29.5,29.88,SSW,196,4.7,8.1,56,0.00,OVC,,0.00,0.0,WeatherDisplay:10.37,2013-11-15 00:29:00,
2013-11-14 18:34:00,44.2,29.5,29.88,SSW,208,9.1,10.4,56,0.00,OVC,,0.00,0.0,WeatherDisplay:10.37,2013-11-15 00:34:00,
2013-11-14 18:39:00,44.2,29.5,29.88,South,182,5.3,9.2,56,0.00,OVC,,0.00,0.0,WeatherDisplay:10.37,2013-11-15 00:39:00,
2013-11-14 18:44:00,44.1,29.8,29.88,SSW,194,4.6,9.6,57,0.00,OVC,,0.00,0.0,WeatherDisplay:10.37,2013-11-15 00:44:00,
2013-11-14 18:55:00,44.2,29.5,29.88,SSW,199,3.1,13.2,56,0.00,OVC,,0.00,0.0,WeatherDisplay:10.37,2013-11-15 00:55:00,
2013-11-14 19:00:00,44.3,29.6,29.88,SSW,196,7.7,13.2,56,0.00,OVC,,0.00,0.0,WeatherDisplay:10.37,2013-11-15 01:00:00,
2013-11-14 19:05:00,44.3,29.6,29.88,SW,219,3.0,8.1,56,0.00,OVC,,0.00,0.0,WeatherDisplay:10.37,2013-11-15 01:05:00,
2013-11-14 19:10:00,44.3,29.6,29.88,SSW,203,0.0,4.6,56,0.00,OVC,,0.00,0.0,WeatherDisplay:10.37,2013-11-15 01:10:00,
2013-11-14 19:15:00,44.3,29.6,29.89,South,181,0.0,0.0,56,0.00,OVC,,0.00,0.0,WeatherDisplay:10.37,2013-11-15 01:15:00,
2013-11-14 19:20:00,44.3,29.6,29.89,SSW,194,0.0,4.6,56,0.00,BKN,,0.00,0.0,WeatherDisplay:10.37,2013-11-15 01:20:00,
2013-11-14 19:25:00,44.3,29.6,29.89,SW,220,4.2,9.2,56,0.00,BKN,,0.00,0.0,WeatherDisplay:10.37,2013-11-15 01:25:00,
2013-11-14 19:30:00,44.3,29.6,29.89,South,191,5.2,8.1,56,0.00,BKN,,0.00,0.0,WeatherDisplay:10.37,2013-11-15 01:30:00,
2013-11-14 19:35:00,44.5,29.8,29.89,SSW,201,7.9,10.4,56,0.00,BKN,,0.00,0.0,WeatherDisplay:10.37,2013-11-15 01:35:00,
2013-11-14 19:40:00,44.5,29.8,29.89,SSW,192,5.4,6.9,56,0.00,OVC,,0.00,0.0,WeatherDisplay:10.37,2013-11-15 01:40:00,
2013-11-14 19:45:00,44.3,29.6,29.89,South,180,7.5,9.2,56,0.00,OVC,,0.00,0.0,WeatherDisplay:10.37,2013-11-15 01:45:00,
2013-11-14 19:50:00,44.3,30.0,29.89,South,172,2.5,9.6,57,0.00,OVC,,0.00,0.0,WeatherDisplay:10.37,2013-11-15 01:50:00,
2013-11-14 20:04:00,44.2,29.9,29.88,SSW,196,8.0,17.3,57,0.00,OVC,,0.00,0.0,WeatherDisplay:10.37,2013-11-15 02:04:00,
2013-11-14 20:09:00,44.2,29.9,29.88,SSW,201,0.0,0.0,57,0.00,OVC,,0.00,0.0,WeatherDisplay:10.37,2013-11-15 02:09:00,
2013-11-14 20:14:00,44.2,29.9,29.88,SSW,197,2.8,6.9,57,0.00,SCT,,0.00,0.0,WeatherDisplay:10.37,2013-11-15 02:14:00,
2013-11-14 20:19:00,44.2,29.9,29.89,SSW,193,2.1,6.0,57,0.00,SCT,,0.00,0.0,WeatherDisplay:10.37,2013-11-15 02:19:00,
2013-11-14 20:24:00,44.2,29.9,29.89,South,171,2.3,2.4,57,0.00,CLR,,0.00,0.0,WeatherDisplay:10.37,2013-11-15 02:24:00,
2013-11-14 20:29:00,44.2,29.9,29.89,SSE,158,0.3,6.0,57,0.00,CLR,,0.00,0.0,WeatherDisplay:10.37,2013-11-15 02:29:00,
2013-11-14 20:34:00,44.2,29.9,29.88,South,190,2.1,0.0,57,0.00,CLR,,0.00,0.0,WeatherDisplay:10.37,2013-11-15 02:34:00,
2013-11-14 20:39:00,44.1,29.8,29.88,South,190,0.0,0.0,57,0.00,CLR,,0.00,0.0,WeatherDisplay:10.37,2013-11-15 02:39:00,
2013-11-14 20:44:00,44.2,29.9,29.88,South,169,6.7,6.7,57,0.00,CLR,,0.00,0.0,WeatherDisplay:10.37,2013-11-15 02:44:00,
2013-11-14 20:49:00,44.2,29.9,29.88,SSW,202,1.9,6.9,57,0.00,CLR,,0.00,0.0,WeatherDisplay:10.37,2013-11-15 02:49:00,
2013-11-14 20:54:00,44.3,29.6,29.88,SSW,205,7.3,7.3,56,0.00,CLR,,0.00,0.0,WeatherDisplay:10.37,2013-11-15 02:54:00,